Time;durP1;ratioP1;P1;durP2;ratioP2;P2;SDS_P1;SDS_P2;PMS_P1;PMS_P2;Temp;Humidity;BMP_temperature;BMP_pressure;BME280_temperature;BME280_humidity;BME280_pressure;Samples;Min_cycle;Max_cycle;Signal;HPM_P1;HPM_P2
2022/06/19 00:00:43;;;;;;;12.33;3.80;;;25.10;62.10;;;;;;5048168;28;20474;-72
2022/06/19 00:03:16;;;;;;;13.90;4.03;;;25.20;61.90;;;;;;5047709;28;20473;-73
2022/06/19 00:05:45;;;;;;;13.17;4.53;;;25.30;61.60;;;;;;5048268;28;20470;-72
2022/06/19 00:08:14;;;;;;;14.10;5.13;;;25.30;61.50;;;;;;5048069;28;20486;-72
2022/06/19 00:10:42;;;;;;;20.10;6.07;;;25.40;61.40;;;;;;5046222;28;20542;-73
2022/06/19 00:13:10;;;;;;;14.73;4.73;;;25.40;61.40;;;;;;5051384;28;20490;-74
2022/06/19 00:15:40;;;;;;;11.57;4.27;;;25.40;61.30;;;;;;5046630;28;20468;-73
2022/06/19 00:18:09;;;;;;;17.10;4.20;;;25.30;61.10;;;;;;5046381;28;20451;-73
2022/06/19 00:20:40;;;;;;;14.50;4.13;;;25.30;60.90;;;;;;5046130;28;20542;-73
2022/06/19 00:23:09;;;;;;;17.53;4.17;;;25.30;60.70;;;;;;5048211;28;20498;-72
2022/06/19 00:25:39;;;;;;;18.07;4.20;;;25.40;60.50;;;;;;5050264;28;20483;-71
2022/06/19 00:28:08;;;;;;;12.63;3.43;;;25.50;60.40;;;;;;5051747;28;20478;-72
2022/06/19 00:30:36;;;;;;;11.97;3.80;;;25.50;60.10;;;;;;5052328;28;20468;-72
2022/06/19 00:33:06;;;;;;;15.73;3.83;;;25.50;60.00;;;;;;5053249;28;20498;-72
2022/06/19 00:35:36;;;;;;;17.57;4.67;;;25.50;59.90;;;;;;5049379;28;20556;-73
2022/06/19 00:38:05;;;;;;;11.70;4.20;;;25.50;59.80;;;;;;5051347;28;20470;-72
2022/06/19 00:40:34;;;;;;;17.50;3.93;;;25.50;59.70;;;;;;5051112;28;20521;-72
2022/06/19 00:43:04;;;;;;;14.63;3.80;;;25.40;59.70;;;;;;5051339;28;20557;-71
2022/06/19 00:45:35;;;;;;;21.00;5.03;;;25.40;59.60;;;;;;5047423;28;20466;-72
2022/06/19 00:48:10;;;;;;;20.67;4.00;;;25.30;59.50;;;;;;5053951;28;20481;-74
2022/06/19 00:50:40;;;;;;;19.60;4.43;;;25.30;59.30;;;;;;5059454;28;20447;-73
2022/06/19 00:53:12;;;;;;;16.80;4.03;;;25.40;59.30;;;;;;5051479;28;20911;-72
2022/06/19 00:55:44;;;;;;;14.27;3.73;;;25.50;59.00;;;;;;5050351;28;20456;-72
2022/06/19 00:58:17;;;;;;;15.70;3.40;;;25.60;58.80;;;;;;5051402;28;20452;-72
2022/06/19 01:00:47;;;;;;;11.83;3.30;;;25.60;58.40;;;;;;5048301;28;20464;-73
2022/06/19 01:03:18;;;;;;;24.40;4.00;;;25.80;58.30;;;;;;5046799;28;20487;-73
2022/06/19 01:05:48;;;;;;;15.00;3.53;;;25.90;58.10;;;;;;5053855;28;20479;-72
2022/06/19 01:08:16;;;;;;;22.83;4.57;;;26.00;57.80;;;;;;5050446;28;20476;-73
2022/06/19 01:10:47;;;;;;;20.53;4.33;;;26.00;57.60;;;;;;5048841;28;20450;-72
2022/06/19 01:13:26;;;;;;;9.33;3.77;;;26.00;57.40;;;;;;5044751;28;20993;-71
2022/06/19 01:15:54;;;;;;;21.87;4.43;;;26.10;57.20;;;;;;5046220;28;20463;-73
2022/06/19 01:18:24;;;;;;;12.63;3.17;;;26.10;57.10;;;;;;5048256;28;20460;-71
2022/06/19 01:20:56;;;;;;;17.57;3.73;;;26.10;57.00;;;;;;5046622;28;20465;-74
2022/06/19 01:23:33;;;;;;;12.07;4.10;;;26.10;56.90;;;;;;5050346;28;20494;-74
2022/06/19 01:26:03;;;;;;;14.70;4.30;;;26.10;56.80;;;;;;5046153;28;20463;-72
2022/06/19 01:28:56;;;;;;;14.73;3.70;;;26.10;56.90;;;;;;5047338;28;20903;-73
2022/06/19 01:31:27;;;;;;;16.83;4.30;;;26.10;57.00;;;;;;5046866;28;20534;-73
2022/06/19 01:33:59;;;;;;;10.80;3.60;;;26.00;57.20;;;;;;5049830;28;21014;-73
2022/06/19 01:36:29;;;;;;;15.40;3.87;;;25.90;57.60;;;;;;5046350;28;20463;-74
2022/06/19 01:39:01;;;;;;;12.30;3.83;;;25.70;58.10;;;;;;5052034;28;20485;-73
2022/06/19 01:41:32;;;;;;;13.73;5.10;;;25.50;58.50;;;;;;5047360;28;20460;-71
2022/06/19 01:48:07;;;;;;;16.50;5.27;;;25.30;59.40;;;;;;5048657;28;21041;-72
2022/06/19 01:50:36;;;;;;;13.50;5.00;;;25.10;59.90;;;;;;5052635;28;20454;-72
2022/06/19 01:53:10;;;;;;;11.17;3.67;;;24.90;60.30;;;;;;5047773;28;20921;-73
2022/06/19 01:55:39;;;;;;;18.30;4.47;;;24.80;60.90;;;;;;5049059;28;20465;-73
2022/06/19 01:58:14;;;;;;;16.63;5.40;;;24.80;61.20;;;;;;5049540;28;20529;-72
2022/06/19 02:00:48;;;;;;;16.70;4.47;;;24.70;61.40;;;;;;5047936;28;23253;-75
2022/06/19 02:03:24;;;;;;;16.20;4.27;;;24.50;61.60;;;;;;5045321;28;20529;-71
2022/06/19 02:05:52;;;;;;;18.70;4.43;;;24.40;61.80;;;;;;5043551;28;21059;-73
2022/06/19 02:08:20;;;;;;;13.30;4.93;;;24.30;62.10;;;;;;5043530;28;20910;-73
2022/06/19 02:10:51;;;;;;;15.50;4.90;;;24.30;62.40;;;;;;5052481;28;20468;-73
2022/06/19 02:13:21;;;;;;;14.57;4.27;;;24.20;62.50;;;;;;5047753;28;20482;-73
2022/06/19 02:15:51;;;;;;;26.37;5.30;;;24.10;62.80;;;;;;5063000;28;20469;-71
2022/06/19 02:18:23;;;;;;;16.67;5.30;;;24.00;63.00;;;;;;5048318;28;20467;-72
2022/06/19 02:20:52;;;;;;;24.00;5.37;;;24.00;63.20;;;;;;5049201;28;20456;-73
2022/06/19 02:23:22;;;;;;;16.00;4.80;;;23.90;63.50;;;;;;5049660;28;20484;-72
2022/06/19 02:25:51;;;;;;;12.30;5.20;;;23.90;63.70;;;;;;5048208;28;20955;-72
2022/06/19 02:28:20;;;;;;;14.80;5.03;;;23.90;63.80;;;;;;5049560;28;20476;-72
2022/06/19 02:30:50;;;;;;;13.43;4.33;;;23.80;63.80;;;;;;5051231;28;20468;-72
2022/06/19 02:33:22;;;;;;;19.97;5.50;;;23.70;63.80;;;;;;5043915;28;21069;-72
2022/06/19 02:35:50;;;;;;;15.43;4.37;;;23.60;63.90;;;;;;5048375;28;20450;-73
2022/06/19 02:38:21;;;;;;;16.83;4.27;;;23.50;64.10;;;;;;5053304;28;20452;-73
2022/06/19 02:40:56;;;;;;;20.90;4.27;;;23.40;64.20;;;;;;5051246;28;21045;-72
2022/06/19 02:43:28;;;;;;;14.30;4.43;;;23.30;64.20;;;;;;5048204;28;20476;-72
2022/06/19 02:45:57;;;;;;;12.37;4.80;;;23.20;64.50;;;;;;5045279;28;20493;-74
2022/06/19 02:48:27;;;;;;;16.67;3.60;;;23.00;64.60;;;;;;5050244;28;20537;-72
2022/06/19 02:50:57;;;;;;;10.93;4.23;;;23.00;64.70;;;;;;5054653;28;20449;-71
2022/06/19 02:53:25;;;;;;;13.67;4.67;;;22.90;64.80;;;;;;5045463;28;20829;-72
2022/06/19 02:55:53;;;;;;;11.43;4.30;;;22.90;65.00;;;;;;5045648;28;20457;-72
2022/06/19 02:58:21;;;;;;;14.13;5.07;;;22.90;65.00;;;;;;5049098;28;20451;-72
2022/06/19 03:00:55;;;;;;;15.10;4.60;;;22.80;65.00;;;;;;5049833;28;20486;-70
2022/06/19 03:03:26;;;;;;;11.57;3.97;;;22.70;65.10;;;;;;5044850;28;20513;-72
2022/06/19 03:05:55;;;;;;;11.67;3.90;;;22.70;65.10;;;;;;5048372;28;20448;-73
2022/06/19 03:08:23;;;;;;;17.30;4.40;;;22.70;65.20;;;;;;5046055;28;20569;-71
2022/06/19 03:10:51;;;;;;;14.73;4.27;;;22.60;65.10;;;;;;5051461;28;20450;-72
2022/06/19 03:13:19;;;;;;;18.73;4.57;;;22.60;65.00;;;;;;5053265;28;20474;-71
2022/06/19 03:15:47;;;;;;;9.37;3.97;;;22.50;65.00;;;;;;5047368;28;20545;-72
2022/06/19 03:18:16;;;;;;;13.67;4.20;;;22.40;65.20;;;;;;5046167;28;20479;-72
2022/06/19 03:20:44;;;;;;;10.40;4.37;;;22.30;65.30;;;;;;5047081;28;20458;-72
2022/06/19 03:23:12;;;;;;;14.20;3.70;;;22.30;65.40;;;;;;5050334;28;20475;-72
2022/06/19 03:25:40;;;;;;;13.60;4.97;;;22.30;65.50;;;;;;5046794;28;20459;-72
2022/06/19 03:28:08;;;;;;;14.60;4.23;;;22.30;65.50;;;;;;5046504;28;21013;-72
2022/06/19 03:30:36;;;;;;;19.23;4.80;;;22.20;65.50;;;;;;5048498;28;20485;-71
2022/06/19 03:33:04;;;;;;;16.10;4.03;;;22.20;65.60;;;;;;5042098;28;20489;-71
2022/06/19 03:35:34;;;;;;;8.87;3.93;;;22.20;65.80;;;;;;5046506;28;20464;-72
2022/06/19 03:38:02;;;;;;;18.23;4.60;;;22.30;65.90;;;;;;5048478;28;20453;-72
2022/06/19 03:40:30;;;;;;;14.60;4.30;;;22.40;65.80;;;;;;5050744;28;20943;-73
2022/06/19 03:42:58;;;;;;;19.13;5.27;;;22.50;65.70;;;;;;5050563;28;20478;-72
2022/06/19 03:45:26;;;;;;;13.30;3.53;;;22.70;65.60;;;;;;5047754;28;20461;-71
2022/06/19 03:47:54;;;;;;;9.37;4.20;;;22.80;65.50;;;;;;5043074;28;20821;-71
2022/06/19 03:50:23;;;;;;;10.90;3.77;;;23.00;65.40;;;;;;5047020;28;20954;-73
2022/06/19 03:52:53;;;;;;;9.40;3.93;;;23.10;65.20;;;;;;5048025;28;21042;-72
2022/06/19 03:55:21;;;;;;;10.40;4.23;;;23.20;65.10;;;;;;5037794;28;20456;-72
2022/06/19 03:57:50;;;;;;;14.30;4.30;;;23.40;64.80;;;;;;5047233;28;20451;-70
2022/06/19 04:00:20;;;;;;;12.53;4.33;;;23.40;64.70;;;;;;5049592;28;20457;-70
2022/06/19 04:02:49;;;;;;;13.10;3.87;;;23.50;64.50;;;;;;5046048;28;21030;-73
2022/06/19 04:05:18;;;;;;;12.33;3.70;;;23.50;64.30;;;;;;5048157;28;20877;-77
2022/06/19 04:07:50;;;;;;;13.67;4.73;;;23.50;64.30;;;;;;5048041;28;20467;-76
2022/06/19 04:10:22;;;;;;;10.70;4.33;;;23.60;64.30;;;;;;5052732;28;20480;-75
2022/06/19 04:12:53;;;;;;;13.00;4.20;;;23.70;64.30;;;;;;5047627;28;20490;-74
2022/06/19 04:15:22;;;;;;;9.07;3.47;;;23.70;64.20;;;;;;5049656;28;20486;-75
2022/06/19 04:17:50;;;;;;;13.57;4.13;;;23.80;64.20;;;;;;5048852;28;20454;-75
2022/06/19 04:20:18;;;;;;;10.30;4.40;;;23.80;64.20;;;;;;5048510;28;20562;-75
2022/06/19 04:22:46;;;;;;;15.23;3.80;;;23.90;64.20;;;;;;5058257;28;20484;-75
2022/06/19 04:25:15;;;;;;;15.80;4.67;;;23.90;64.30;;;;;;5048635;28;20447;-74
2022/06/19 04:27:44;;;;;;;11.20;4.67;;;23.90;64.30;;;;;;5052825;28;20444;-76
2022/06/19 04:30:14;;;;;;;8.80;4.43;;;23.90;64.40;;;;;;5055162;28;20481;-76
2022/06/19 04:32:42;;;;;;;17.10;4.63;;;24.00;64.40;;;;;;5050054;28;20479;-72
2022/06/19 04:35:11;;;;;;;17.60;4.63;;;24.00;64.50;;;;;;5046565;28;20468;-75
2022/06/19 04:37:43;;;;;;;13.27;4.20;;;24.10;64.60;;;;;;5048014;28;20448;-73
2022/06/19 04:40:12;;;;;;;18.83;5.33;;;24.10;64.60;;;;;;5058262;28;20500;-74
2022/06/19 04:42:40;;;;;;;11.73;4.87;;;24.20;64.70;;;;;;5047168;28;20484;-75
2022/06/19 04:45:13;;;;;;;13.67;5.23;;;24.30;64.70;;;;;;5047835;28;20449;-74
2022/06/19 04:47:41;;;;;;;13.40;5.50;;;24.30;64.80;;;;;;5050520;28;20540;-75
2022/06/19 04:50:11;;;;;;;15.40;4.97;;;24.40;64.80;;;;;;5063517;28;20492;-76
2022/06/19 04:52:39;;;;;;;15.53;5.17;;;24.50;64.90;;;;;;5048373;28;20488;-75
2022/06/19 04:55:07;;;;;;;20.33;4.83;;;24.60;64.90;;;;;;5050595;28;20457;-75
2022/06/19 04:57:35;;;;;;;15.47;5.63;;;24.70;64.90;;;;;;5053058;28;20470;-74
2022/06/19 05:00:06;;;;;;;15.97;4.63;;;24.80;64.80;;;;;;5050829;28;20450;-75
2022/06/19 05:02:35;;;;;;;14.30;4.90;;;24.90;64.90;;;;;;5052547;28;20481;-75
2022/06/19 05:05:05;;;;;;;10.03;4.30;;;24.90;64.90;;;;;;5047603;28;20450;-75
2022/06/19 05:07:33;;;;;;;11.63;4.53;;;25.00;64.90;;;;;;5052060;28;20492;-75
2022/06/19 05:10:02;;;;;;;11.53;4.20;;;25.10;64.80;;;;;;5048210;28;20489;-75
2022/06/19 05:12:29;;;;;;;12.40;4.57;;;25.20;64.80;;;;;;5047480;28;20859;-75
2022/06/19 05:14:57;;;;;;;10.27;4.40;;;25.30;64.90;;;;;;5043403;28;20466;-75
2022/06/19 05:18:13;;;;;;;14.10;5.07;;;25.50;64.80;;;;;;5053575;28;20484;-76
2022/06/19 05:20:44;;;;;;;10.43;4.47;;;25.60;65.00;;;;;;5051749;28;20982;-75
2022/06/19 05:23:12;;;;;;;24.90;5.67;;;25.70;64.90;;;;;;5054981;28;21159;-74
2022/06/19 05:25:45;;;;;;;14.50;4.67;;;25.80;64.80;;;;;;5048636;28;20534;-74
2022/06/19 05:28:17;;;;;;;13.23;4.77;;;26.00;64.80;;;;;;5050504;28;20461;-75
2022/06/19 05:30:45;;;;;;;12.60;4.80;;;26.10;64.80;;;;;;5045524;28;20994;-77
2022/06/19 05:33:13;;;;;;;11.07;4.70;;;26.20;64.60;;;;;;5046829;28;20584;-74
2022/06/19 05:35:41;;;;;;;13.83;4.97;;;26.40;64.60;;;;;;5043585;28;20813;-78
2022/06/19 05:38:13;;;;;;;14.57;4.47;;;26.60;64.70;;;;;;5053219;28;20873;-76
2022/06/19 05:40:41;;;;;;;26.20;4.50;;;26.80;64.90;;;;;;5045161;28;20479;-76
2022/06/19 05:43:09;;;;;;;11.93;4.60;;;27.30;64.60;;;;;;5048824;28;20562;-76
2022/06/19 05:45:38;;;;;;;14.50;4.43;;;27.90;63.60;;;;;;5043686;28;20476;-76
2022/06/19 05:48:06;;;;;;;11.53;4.30;;;28.70;62.40;;;;;;5043551;28;20911;-74
2022/06/19 05:50:34;;;;;;;12.37;4.40;;;29.50;61.10;;;;;;5049356;28;21046;-76
2022/06/19 05:53:03;;;;;;;18.50;5.17;;;30.30;59.90;;;;;;5050338;28;20475;-75
2022/06/19 05:55:37;;;;;;;15.80;5.10;;;31.00;58.90;;;;;;5049632;28;21024;-73
2022/06/19 05:58:05;;;;;;;14.80;4.40;;;31.50;58.00;;;;;;5051522;28;20466;-76
2022/06/19 06:00:33;;;;;;;11.23;4.70;;;32.10;57.20;;;;;;5048896;28;20477;-75
2022/06/19 06:07:10;;;;;;;16.00;4.50;;;33.10;55.40;;;;;;5046473;28;21055;-75
2022/06/19 06:14:21;;;;;;;17.33;4.10;;;33.40;53.70;;;;;;5060254;28;20818;-75
2022/06/19 06:17:51;;;;;;;11.60;4.60;;;33.00;53.60;;;;;;5018997;28;20492;-73
2022/06/19 06:20:20;;;;;;;14.50;4.13;;;32.50;54.50;;;;;;5050118;28;20471;-73
2022/06/19 06:22:54;;;;;;;9.70;4.20;;;32.30;54.80;;;;;;5046147;28;20489;-72
2022/06/19 06:25:23;;;;;;;8.83;3.40;;;32.00;54.70;;;;;;5045119;28;20470;-71
2022/06/19 06:27:51;;;;;;;12.40;4.10;;;31.70;54.70;;;;;;5046295;28;20470;-70
2022/06/19 06:30:19;;;;;;;14.03;4.27;;;31.40;55.00;;;;;;5046855;28;20471;-74
2022/06/19 06:32:47;;;;;;;10.03;3.47;;;31.10;55.10;;;;;;5050099;28;20474;-74
2022/06/19 06:35:17;;;;;;;8.40;4.07;;;30.90;55.30;;;;;;5042626;28;20489;-72
2022/06/19 06:37:45;;;;;;;19.97;4.00;;;30.60;55.60;;;;;;5048341;28;20465;-73
2022/06/19 06:40:13;;;;;;;11.00;3.60;;;30.30;55.80;;;;;;5047465;28;20446;-72
2022/06/19 06:42:45;;;;;;;16.67;4.93;;;30.00;55.90;;;;;;5043972;28;20486;-72
2022/06/19 06:45:14;;;;;;;13.83;3.60;;;29.80;56.00;;;;;;5045764;28;20466;-73
2022/06/19 06:47:42;;;;;;;22.77;3.67;;;29.60;56.00;;;;;;5048144;28;20450;-73
2022/06/19 06:50:11;;;;;;;10.30;3.43;;;29.50;55.90;;;;;;5047932;28;20482;-73
2022/06/19 06:52:40;;;;;;;9.93;3.63;;;29.40;55.90;;;;;;5047679;28;20474;-73
2022/06/19 06:55:09;;;;;;;15.43;4.93;;;29.20;55.90;;;;;;5041476;28;21132;-71
2022/06/19 06:57:38;;;;;;;12.27;3.03;;;29.20;55.90;;;;;;5043970;28;20506;-72
2022/06/19 07:00:09;;;;;;;12.10;4.00;;;29.10;55.80;;;;;;5043504;28;20466;-73
2022/06/19 07:02:37;;;;;;;16.37;4.27;;;29.00;55.90;;;;;;5038834;28;20582;-73
2022/06/19 07:05:06;;;;;;;14.20;3.73;;;28.90;56.00;;;;;;5044149;28;20472;-73
2022/06/19 07:07:34;;;;;;;12.10;3.70;;;28.80;56.10;;;;;;5045099;28;21005;-72
2022/06/19 07:10:03;;;;;;;12.37;4.03;;;28.70;56.20;;;;;;5047569;28;20492;-71
2022/06/19 07:12:31;;;;;;;15.90;4.90;;;28.70;56.30;;;;;;5042953;28;20487;-72
2022/06/19 07:15:00;;;;;;;12.97;3.93;;;28.70;56.40;;;;;;5040084;28;20644;-73
2022/06/19 07:17:28;;;;;;;15.13;5.67;;;28.70;56.40;;;;;;5045952;28;21256;-71
2022/06/19 07:19:59;;;;;;;15.97;4.20;;;28.70;56.40;;;;;;5044045;28;21174;-72
2022/06/19 07:22:28;;;;;;;21.57;5.40;;;28.70;56.30;;;;;;5049785;28;20499;-72
2022/06/19 07:24:56;;;;;;;14.50;4.93;;;28.70;56.40;;;;;;5043925;28;21147;-72
2022/06/19 07:27:26;;;;;;;14.00;4.60;;;28.70;56.40;;;;;;5048480;28;20457;-72
2022/06/19 07:29:55;;;;;;;12.83;4.80;;;28.70;56.50;;;;;;5041754;28;20483;-71
2022/06/19 07:32:23;;;;;;;11.30;4.10;;;28.70;56.60;;;;;;5041395;28;21239;-72
2022/06/19 07:34:51;;;;;;;13.53;4.33;;;28.70;56.70;;;;;;5051043;28;20464;-71
2022/06/19 07:37:20;;;;;;;13.03;4.40;;;28.70;56.80;;;;;;5046251;28;20474;-72
2022/06/19 07:39:49;;;;;;;14.57;4.80;;;28.80;57.00;;;;;;5051786;28;20462;-72
2022/06/19 07:42:17;;;;;;;12.53;4.17;;;28.80;57.10;;;;;;5049149;28;20477;-71
2022/06/19 07:44:47;;;;;;;17.73;5.77;;;28.90;57.10;;;;;;5048061;28;20457;-72
2022/06/19 07:50:11;;;;;;;15.47;5.73;;;29.00;57.20;;;;;;5047986;28;20519;-70
2022/06/19 07:52:41;;;;;;;18.33;5.50;;;29.10;57.20;;;;;;5048679;28;20867;-72
2022/06/19 07:55:12;;;;;;;14.03;5.93;;;29.10;57.10;;;;;;5047322;28;20466;-72
2022/06/19 07:57:41;;;;;;;15.23;5.57;;;29.20;57.10;;;;;;5046051;28;20469;-72
2022/06/19 08:00:16;;;;;;;16.30;5.17;;;29.20;57.30;;;;;;5065434;28;21216;-72
2022/06/19 08:02:47;;;;;;;15.37;6.20;;;29.20;57.40;;;;;;5047971;28;20508;-71
2022/06/19 08:05:16;;;;;;;15.10;5.47;;;29.30;57.40;;;;;;5049163;28;20465;-72
2022/06/19 08:11:32;;;;;;;21.50;6.83;;;29.30;57.30;;;;;;5050230;28;20462;-73
2022/06/19 08:14:00;;;;;;;14.30;6.30;;;29.40;57.40;;;;;;5041332;28;20453;-72
2022/06/19 08:16:30;;;;;;;10.43;5.70;;;29.40;57.40;;;;;;5047364;28;21022;-71
2022/06/19 08:18:58;;;;;;;17.93;7.13;;;29.50;57.40;;;;;;5045050;28;20474;-71
2022/06/19 08:21:27;;;;;;;18.97;7.30;;;29.50;57.40;;;;;;5051388;28;20484;-72
2022/06/19 08:23:55;;;;;;;13.37;7.17;;;29.50;57.20;;;;;;5047098;28;20476;-72
2022/06/19 08:26:23;;;;;;;10.97;7.33;;;29.60;57.30;;;;;;5051412;28;20464;-72
2022/06/19 08:28:55;;;;;;;17.83;7.20;;;29.60;57.30;;;;;;5047840;28;20472;-73
2022/06/19 08:31:23;;;;;;;12.87;7.30;;;29.60;57.30;;;;;;5053714;28;20484;-71
2022/06/19 08:33:52;;;;;;;14.60;7.17;;;29.60;57.20;;;;;;5048451;28;20486;-73
2022/06/19 08:36:21;;;;;;;14.90;7.33;;;29.70;57.00;;;;;;5046228;28;21249;-72
2022/06/19 08:38:54;;;;;;;20.57;8.17;;;29.70;56.80;;;;;;5045213;28;20472;-72
2022/06/19 08:42:07;;;;;;;14.73;7.73;;;29.80;56.60;;;;;;5056363;28;20837;-72
2022/06/19 08:44:50;;;;;;;12.50;7.47;;;29.80;56.30;;;;;;5036155;28;20798;-73
2022/06/19 08:47:42;;;;;;;19.10;8.03;;;29.90;56.30;;;;;;5046569;28;20464;-73
2022/06/19 08:50:24;;;;;;;11.60;7.30;;;29.90;56.10;;;;;;5036956;28;20479;-72
2022/06/19 08:53:10;;;;;;;12.53;7.40;;;30.00;55.80;;;;;;5053989;28;20474;-72
2022/06/19 08:55:47;;;;;;;14.00;7.33;;;30.00;56.10;;;;;;5050530;28;20477;-72
2022/06/19 08:58:27;;;;;;;16.77;7.30;;;30.10;56.20;;;;;;5045255;28;20499;-72
2022/06/19 09:01:01;;;;;;;14.60;7.80;;;30.20;56.00;;;;;;5051561;28;20505;-72
2022/06/19 09:06:28;;;;;;;14.33;7.33;;;30.30;55.80;;;;;;5050106;28;20474;-72
2022/06/19 09:09:09;;;;;;;14.07;8.03;;;30.40;55.50;;;;;;5047787;28;20475;-72
2022/06/19 09:12:11;;;;;;;15.07;8.13;;;30.40;55.30;;;;;;5049147;28;20489;-73
2022/06/19 09:14:48;;;;;;;17.87;8.20;;;30.40;55.00;;;;;;5049385;28;20466;-72
2022/06/19 09:17:23;;;;;;;16.70;8.23;;;30.50;55.00;;;;;;5045567;28;20835;-72
2022/06/19 09:19:54;;;;;;;14.80;7.70;;;30.50;54.90;;;;;;5050615;28;20450;-71
2022/06/19 09:22:48;;;;;;;17.37;7.63;;;30.50;54.70;;;;;;5053828;28;20470;-72
2022/06/19 09:25:32;;;;;;;16.57;8.23;;;30.60;54.50;;;;;;5048634;28;20460;-71
2022/06/19 09:28:06;;;;;;;16.13;7.77;;;30.60;54.40;;;;;;5046570;28;20452;-72
2022/06/19 09:30:41;;;;;;;17.40;7.80;;;30.60;54.40;;;;;;5047661;28;20477;-71
2022/06/19 09:33:14;;;;;;;14.10;7.40;;;30.70;54.30;;;;;;5056192;28;20502;-72
2022/06/19 09:35:47;;;;;;;19.13;8.03;;;30.70;54.20;;;;;;5047746;28;20465;-72
2022/06/19 09:38:21;;;;;;;14.63;7.00;;;30.70;54.30;;;;;;5047162;28;21242;-72
2022/06/19 09:40:56;;;;;;;16.67;7.73;;;30.70;54.40;;;;;;5049973;28;20476;-73
2022/06/19 09:43:29;;;;;;;12.10;7.30;;;30.80;54.40;;;;;;5050006;28;20896;-72
2022/06/19 09:46:02;;;;;;;14.83;8.00;;;30.80;54.40;;;;;;5046785;28;20484;-72
2022/06/19 09:48:37;;;;;;;15.97;7.60;;;30.90;54.40;;;;;;5050050;28;20481;-71
2022/06/19 09:51:12;;;;;;;15.70;7.73;;;30.90;54.30;;;;;;5048594;28;20456;-72
2022/06/19 09:53:47;;;;;;;15.77;7.13;;;30.90;54.20;;;;;;5050236;28;20474;-72
2022/06/19 09:57:21;;;;;;;13.30;7.70;;;31.00;54.20;;;;;;5048328;28;20459;-71
2022/06/19 10:03:48;;;;;;;17.23;7.53;;;31.10;53.80;;;;;;5048667;28;20458;-73
2022/06/19 10:06:34;;;;;;;17.43;8.10;;;31.10;54.00;;;;;;5045629;28;20457;-74
2022/06/19 10:09:13;;;;;;;13.97;7.67;;;31.10;54.10;;;;;;5047053;28;21236;-73
2022/06/19 10:11:42;;;;;;;18.97;7.97;;;31.20;53.90;;;;;;5056211;28;20475;-73
2022/06/19 10:14:15;;;;;;;18.70;7.70;;;31.20;53.90;;;;;;5049964;28;20973;-72
2022/06/19 10:16:50;;;;;;;23.83;8.13;;;31.30;53.70;;;;;;5047846;28;20562;-73
2022/06/19 10:19:23;;;;;;;18.33;7.80;;;31.30;53.90;;;;;;5041720;28;20975;-73
2022/06/19 10:22:16;;;;;;;16.33;8.73;;;31.30;53.80;;;;;;5046945;28;20446;-71
2022/06/19 10:24:57;;;;;;;16.50;8.00;;;31.30;53.60;;;;;;5047195;28;20455;-73
2022/06/19 10:27:39;;;;;;;13.03;7.90;;;31.40;53.50;;;;;;5047358;28;20455;-73
2022/06/19 10:30:11;;;;;;;13.83;8.37;;;31.40;53.50;;;;;;5044748;28;21040;-71
2022/06/19 10:32:52;;;;;;;17.30;8.67;;;31.40;53.50;;;;;;5048542;28;20566;-73
2022/06/19 10:35:26;;;;;;;15.20;8.23;;;31.50;53.50;;;;;;5049127;28;20461;-72
2022/06/19 10:38:10;;;;;;;20.13;7.93;;;31.50;53.60;;;;;;5051553;28;20821;-73
2022/06/19 10:40:46;;;;;;;15.90;7.83;;;31.50;53.60;;;;;;5047878;28;20524;-72
2022/06/19 10:43:34;;;;;;;18.10;8.07;;;31.60;53.60;;;;;;5049175;28;20470;-73
2022/06/19 10:46:07;;;;;;;21.07;8.23;;;31.60;53.60;;;;;;5046892;28;20478;-73
2022/06/19 10:48:45;;;;;;;15.73;7.50;;;31.60;53.30;;;;;;5048119;28;20795;-73
2022/06/19 10:51:26;;;;;;;12.23;8.13;;;31.60;53.20;;;;;;5044680;28;20470;-73
2022/06/19 10:54:21;;;;;;;16.97;8.07;;;31.70;53.00;;;;;;5057708;28;20479;-73
2022/06/19 10:57:06;;;;;;;17.90;8.10;;;31.70;52.90;;;;;;5046293;28;21202;-73
2022/06/19 10:59:34;;;;;;;14.77;7.40;;;31.70;52.80;;;;;;5042610;28;20471;-73
2022/06/19 11:05:07;;;;;;;15.67;7.30;;;31.70;52.60;;;;;;5008056;28;20796;-73
2022/06/19 11:07:35;;;;;;;19.93;9.20;;;31.80;52.40;;;;;;5044830;28;20499;-73
2022/06/19 11:10:07;;;;;;;16.70;7.67;;;31.80;52.40;;;;;;5045397;28;20468;-73
2022/06/19 11:12:44;;;;;;;12.47;8.17;;;31.80;52.40;;;;;;5047781;28;20502;-73
2022/06/19 11:15:20;;;;;;;12.00;7.70;;;31.90;52.30;;;;;;5044774;28;20491;-72
2022/06/19 11:17:52;;;;;;;15.63;7.57;;;31.90;52.00;;;;;;5045469;28;20462;-71
2022/06/19 11:20:27;;;;;;;17.57;8.07;;;31.90;52.40;;;;;;5048602;28;21061;-72
2022/06/19 11:23:02;;;;;;;19.77;8.70;;;32.00;52.20;;;;;;5046189;28;20885;-71
2022/06/19 11:25:34;;;;;;;20.40;8.13;;;32.10;52.00;;;;;;5046451;28;20981;-71
2022/06/19 11:28:08;;;;;;;19.70;7.73;;;32.10;51.90;;;;;;5045343;28;21026;-72
2022/06/19 11:30:39;;;;;;;15.97;8.17;;;32.10;51.90;;;;;;5044131;28;20510;-72
2022/06/19 11:33:11;;;;;;;18.87;7.97;;;32.10;51.90;;;;;;5043584;28;20490;-72
2022/06/19 11:35:43;;;;;;;14.00;8.23;;;32.00;51.50;;;;;;5054710;28;20462;-73
2022/06/19 11:38:12;;;;;;;14.23;8.13;;;32.00;51.60;;;;;;5046757;28;20437;-72
2022/06/19 11:40:46;;;;;;;16.17;8.20;;;32.00;51.50;;;;;;5044234;28;20964;-71
2022/06/19 11:43:28;;;;;;;19.57;8.27;;;32.00;51.60;;;;;;5046290;28;20546;-72
2022/06/19 11:46:06;;;;;;;15.23;8.30;;;32.00;51.80;;;;;;5052884;28;20572;-72
2022/06/19 11:48:34;;;;;;;21.80;8.57;;;32.10;52.00;;;;;;5045288;28;20470;-72
2022/06/19 11:51:03;;;;;;;16.40;8.33;;;32.10;51.90;;;;;;5045324;28;20432;-72
2022/06/19 11:53:35;;;;;;;19.13;8.40;;;32.10;51.90;;;;;;5045904;28;20485;-71
2022/06/19 11:56:21;;;;;;;23.93;8.73;;;32.10;51.60;;;;;;5042522;28;20455;-73
2022/06/19 11:58:56;;;;;;;15.00;8.07;;;32.10;51.60;;;;;;5044011;28;20454;-71
2022/06/19 12:01:36;;;;;;;19.17;8.00;;;32.10;51.50;;;;;;5041599;28;20836;-71
2022/06/19 12:04:08;;;;;;;21.40;8.33;;;32.20;51.50;;;;;;5044005;28;21086;-72
2022/06/19 12:06:42;;;;;;;20.90;8.20;;;32.20;51.50;;;;;;5045190;28;20512;-73
2022/06/19 12:09:27;;;;;;;17.80;8.60;;;32.10;51.60;;;;;;5039278;28;20441;-73
2022/06/19 12:12:05;;;;;;;11.30;8.20;;;32.20;51.70;;;;;;5040629;28;20470;-72
2022/06/19 12:14:39;;;;;;;16.27;8.27;;;32.30;51.70;;;;;;5039092;28;20475;-72
2022/06/19 12:17:16;;;;;;;19.47;8.37;;;32.40;51.70;;;;;;5046983;28;20471;-72
2022/06/19 12:19:53;;;;;;;15.27;9.00;;;32.50;51.50;;;;;;5045736;28;20450;-73
2022/06/19 12:22:27;;;;;;;22.87;9.00;;;32.50;51.50;;;;;;5049299;28;20554;-73
2022/06/19 12:25:02;;;;;;;21.20;8.77;;;32.60;51.40;;;;;;5043654;28;20458;-73
2022/06/19 12:27:36;;;;;;;16.10;9.33;;;32.60;51.30;;;;;;5047339;28;20538;-72
2022/06/19 12:30:18;;;;;;;14.67;8.20;;;32.60;51.30;;;;;;5052227;28;20814;-72
2022/06/19 12:32:49;;;;;;;16.23;8.70;;;32.70;51.10;;;;;;5046376;28;20467;-73
2022/06/19 12:35:27;;;;;;;22.43;8.80;;;32.70;51.20;;;;;;5045570;28;20435;-73
2022/06/19 12:37:55;;;;;;;16.27;8.03;;;32.70;51.40;;;;;;5049165;28;20455;-73
2022/06/19 12:40:43;;;;;;;14.30;8.10;;;32.80;51.50;;;;;;5050790;28;21217;-73
2022/06/19 12:43:17;;;;;;;15.93;7.47;;;32.90;51.40;;;;;;5050208;28;20539;-72
2022/06/19 12:45:54;;;;;;;17.83;8.50;;;32.90;51.20;;;;;;5043337;28;20491;-73
2022/06/19 12:48:39;;;;;;;14.67;8.20;;;32.90;51.20;;;;;;5039660;28;20971;-71
2022/06/19 12:51:13;;;;;;;18.10;8.70;;;33.00;51.10;;;;;;5048299;28;20462;-72
2022/06/19 12:54:06;;;;;;;13.63;9.23;;;33.00;50.90;;;;;;5049277;28;20479;-73
2022/06/19 12:56:49;;;;;;;18.17;9.17;;;33.00;50.90;;;;;;5039713;28;20991;-72
2022/06/19 12:59:41;;;;;;;19.40;8.17;;;33.00;50.80;;;;;;5046706;28;20453;-73
2022/06/19 13:02:17;;;;;;;21.23;8.10;;;33.00;50.90;;;;;;5040612;28;22159;-71
2022/06/19 13:05:02;;;;;;;11.03;7.60;;;33.10;50.70;;;;;;5041940;28;20459;-72
2022/06/19 13:07:45;;;;;;;14.00;8.23;;;33.10;50.70;;;;;;5047837;28;20442;-72
2022/06/19 13:10:39;;;;;;;30.40;9.80;;;33.10;50.80;;;;;;5050826;28;20448;-71
2022/06/19 13:14:03;;;;;;;13.80;9.57;;;33.20;50.80;;;;;;5047557;28;20469;-73
2022/06/19 13:16:40;;;;;;;22.20;9.03;;;33.20;50.60;;;;;;5023259;28;20469;-71
2022/06/19 13:23:05;;;;;;;13.70;7.43;;;33.10;50.80;;;;;;5027222;28;20532;-72
2022/06/19 13:25:38;;;;;;;16.37;8.97;;;33.10;50.80;;;;;;5050635;28;20429;-73
2022/06/19 13:28:21;;;;;;;18.90;7.47;;;33.10;50.60;;;;;;5049744;28;20825;-73
2022/06/19 13:30:55;;;;;;;14.20;8.20;;;33.10;50.80;;;;;;5049593;28;20537;-73
2022/06/19 13:33:39;;;;;;;27.50;9.30;;;33.20;50.60;;;;;;5052251;28;20486;-72
2022/06/19 13:36:17;;;;;;;17.73;9.13;;;33.30;50.50;;;;;;5048784;28;20486;-72
2022/06/19 13:38:57;;;;;;;11.60;8.03;;;33.30;50.30;;;;;;5049344;28;20447;-72
2022/06/19 13:41:32;;;;;;;17.80;7.90;;;33.30;50.50;;;;;;5049591;28;20478;-72